WetterOnline ( https://www.wetteronline.de )

Wetter aktuell Minden

Aktuelles Wetter: Bad Salzuflen (139m)

6-stündlich | Neueste Meldungen
Ortszeit Temperatur Wetter
Sa, 28.01. 19:00 -1.7° C wolkig
Sa, 28.01. 13:00 0.7° C wolkig
Sa, 28.01. 7:00 -0.3° C bedeckt
Sa, 28.01. 1:00 0.4° C bedeckt
Fr, 27.01. 19:00 1.9° C bedeckt
Fr, 27.01. 13:00 3.0° C Sprühregen
Fr, 27.01. 7:00 2.6° C Regen
Fr, 27.01. 1:00 1.5° C Sprühregen
Ortszeit Temperatur Wetter
So, 29.01. 0:00 -1.5° C bedeckt
Sa, 28.01. 23:50 -1.5° C bedeckt
Sa, 28.01. 23:40 -1.5° C bewölkt
Sa, 28.01. 23:30 -1.6° C bewölkt
Sa, 28.01. 23:20 -1.6° C bewölkt
Sa, 28.01. 23:10 -1.6° C bedeckt
Sa, 28.01. 23:00 -1.7° C bedeckt
Sa, 28.01. 22:30 -2.1° C bewölkt
Sa, 28.01. 22:00 -2.0° C bewölkt
Sa, 28.01. 21:30 -2.3° C wolkig
Sa, 28.01. 21:00 -2.2° C leicht bewölkt
Ortszeit Relative Feuchte Sichtweite
Sa, 28.01. 19:00 83% 35 km
Sa, 28.01. 13:00 68% 45 km
Sa, 28.01. 7:00 75% 60 km
Sa, 28.01. 1:00 78% >70 km
Fr, 27.01. 19:00 83% >70 km
Fr, 27.01. 13:00 91% 50 km
Fr, 27.01. 7:00 99% 9 km
Fr, 27.01. 1:00 98% 2.7 km
Ortszeit Relative Feuchte Sichtweite
So, 29.01. 0:00 82% 17 km
Sa, 28.01. 23:50 82% -
Sa, 28.01. 23:40 82% -
Sa, 28.01. 23:30 83% 19 km
Sa, 28.01. 23:20 83% -
Sa, 28.01. 23:10 84% -
Sa, 28.01. 23:00 84% 18 km
Sa, 28.01. 22:30 87% 19 km
Sa, 28.01. 22:00 86% 20 km
Sa, 28.01. 21:30 88% 22 km
Sa, 28.01. 21:00 86% 24 km
Ortszeit Niederschlagsmenge Niederschlagsart
Sa, 28.01. 19:00 0.0 l/m2 in 12 Std. -
Sa, 28.01. 13:00 0.0 l/m2 in 6 Std. -
Sa, 28.01. 7:00 0.0 l/m2 in 12 Std. -
Sa, 28.01. 1:00 0.0 l/m2 in 6 Std. -
Fr, 27.01. 19:00 0.6 l/m2 in 12 Std. Regen
Fr, 27.01. 13:00 0.6 l/m2 in 6 Std. Regen
Fr, 27.01. 7:00 0.6 l/m2 in 12 Std. Regen
Fr, 27.01. 1:00 0.1 l/m2 in 6 Std. Sprühregen
Ortszeit Niederschlagsmenge Niederschlagsart
So, 29.01. 0:00 0.0 l/m2 in 1 Std. -
Sa, 28.01. 23:50 keine Meldung -
Sa, 28.01. 23:40 keine Meldung -
Sa, 28.01. 23:30 0.0 l/m2 in 30 Min -
Sa, 28.01. 23:20 keine Meldung -
Sa, 28.01. 23:10 keine Meldung -
Sa, 28.01. 23:00 0.0 l/m2 in 1 Std. -
Sa, 28.01. 22:30 0.0 l/m2 in 30 Min -
Sa, 28.01. 22:00 0.0 l/m2 in 1 Std. -
Sa, 28.01. 21:30 0.0 l/m2 in 30 Min -
Sa, 28.01. 21:00 0.0 l/m2 in 1 Std. -
Ortszeit Stärke Spitze Richtung
km/h Bft. km/h Grad Sektor
Sa, 28.01. 19:00 4 1 14 180° S
Sa, 28.01. 13:00 4 1 18 150° SO
Sa, 28.01. 7:00 6 1 13 10° N
Sa, 28.01. 1:00 4 1 29 60° NO
Fr, 27.01. 19:00 11 2 32 30° NO
Fr, 27.01. 13:00 7 2 35 50° NO
Fr, 27.01. 7:00 9 2 30 20° N
Fr, 27.01. 1:00 11 2 31 20° N
Ortszeit Stärke Spitze Richtung
km/h Bft. km/h Grad Sektor
So, 29.01. 0:00 7 2 14 200° S
Sa, 28.01. 23:50 7 2 - 200° S
Sa, 28.01. 23:40 9 2 - 200° S
Sa, 28.01. 23:30 7 2 11 190° S
Sa, 28.01. 23:20 7 2 - 190° S
Sa, 28.01. 23:10 6 1 - 180° S
Sa, 28.01. 23:00 6 1 9 210° SW
Sa, 28.01. 22:30 6 1 7 210° SW
Sa, 28.01. 22:00 4 1 7 190° S
Sa, 28.01. 21:30 6 1 9 210° SW
Sa, 28.01. 21:00 4 1 7 210° SW
Ortszeit Untergrenze Bedeckung Gattung
total tief tief mittel hoch
Sa, 28.01. 19:00 9000 m 7/8 0/8 - - -
Sa, 28.01. 13:00 630 m 7/8 3/8 - - -
Sa, 28.01. 7:00 630 m 8/8 8/8 - - -
Sa, 28.01. 1:00 540 m 8/8 8/8 - - -
Fr, 27.01. 19:00 480 m 8/8 8/8 - - -
Fr, 27.01. 13:00 270 m 7/8 7/8 - - -
Fr, 27.01. 7:00 120 m 8/8 8/8 - - -
Fr, 27.01. 1:00 30 m 8/8 8/8 - - -
Ortszeit Bedeckungsgrad in Achtel und Wolkenuntergrenze
So, 29.01. 0:00 8(870m)
Sa, 28.01. 23:50 8(870m)
Sa, 28.01. 23:40 7
Sa, 28.01. 23:30 7(900m)
Sa, 28.01. 23:20 7(900m)
Sa, 28.01. 23:10 8
Sa, 28.01. 23:00 8(870m)
Sa, 28.01. 22:30 7(900m)
Sa, 28.01. 22:00 7(900m) 7(8400m) 7(9000m)
Sa, 28.01. 21:30 4(960m) 5(7500m)
Sa, 28.01. 21:00 4(990m) 4(7500m)
Ortszeit Luftdruck NN (hPa) Tendenz (hPa in 3 Std.)
Sa, 28.01. 19:00 1031 + 0,3
Sa, 28.01. 13:00 1031 + 0,1
Sa, 28.01. 7:00 1030 + 0,3
Sa, 28.01. 1:00 1029 - 0,2
Fr, 27.01. 19:00 1028 + 1,5
Fr, 27.01. 13:00 1027 + 0,5
Fr, 27.01. 7:00 1025 + 1,0
Fr, 27.01. 1:00 1024 + 0,4
Ortszeit Luftdruck NN (hPa) Tendenz (hPa in 3 Std.)
So, 29.01. 0:00 1031 - 0,7
Sa, 28.01. 23:50 1031 keine Meldung
Sa, 28.01. 23:40 1031 keine Meldung
Sa, 28.01. 23:30 1031 - 0,7
Sa, 28.01. 23:20 1031 keine Meldung
Sa, 28.01. 23:10 1031 keine Meldung
Sa, 28.01. 23:00 1031 - 0,3
Sa, 28.01. 22:30 1031 - 0,1
Sa, 28.01. 22:00 1031 + 0,1
Sa, 28.01. 21:30 1031 + 0,5
Sa, 28.01. 21:00 1031 + 1,0
Ortszeit Schneehöhe (cm)
Sa, 28.01. 19:00 0
Sa, 28.01. 13:00 0
Sa, 28.01. 7:00 0
Sa, 28.01. 1:00 0
Fr, 27.01. 19:00 0
Fr, 27.01. 13:00 0
Fr, 27.01. 7:00 0
Fr, 27.01. 1:00 0
Ortszeit Schneehöhe (cm)
So, 29.01. 0:00 0
Sa, 28.01. 23:50 0
Sa, 28.01. 23:40 0
Sa, 28.01. 23:30 0
Sa, 28.01. 23:20 0
Sa, 28.01. 23:10 0
Sa, 28.01. 23:00 0
Sa, 28.01. 22:30 0
Sa, 28.01. 22:00 0
Sa, 28.01. 21:30 0
Sa, 28.01. 21:00 0
Link zu dieser Seite / Seite empfehlen

Das Wetter in ...